フェアバンクス国際空港の過去48時間の天気

フェアバンクス国際空港 (Fairbanks, Fairbanks International Airport)

現在時刻: 7/4 20:15 AKDT (7/5 04:15 UTC) 以下の時間は現地時間です。

過去48時間のMETAR気象情報
時間 風向 風速(m/s) 視程 気温(℃) 湿度(%) 気圧(hPa) 天気現象
4 19:53 西南西 3 8050m 26.7 42 1009.6
4 18:53 南南西 3 8050m 27.8 38 1010
4 17:53 南南西 3 10km以上 27.8 35 1010.1
4 16:53 不定 2 8050m 27.2 38 1010.3
4 15:53 南南東 2 6450m 26.1 44 1010.9
4 14:53 静穏 0 4850m 26.1 47 1011.4
4 13:53 静穏 0 3200m 25 50 1012.1
4 12:53 静穏 0 4850m 23.3 56 1012.6
4 11:53 静穏 0 6450m 22.2 59 1012.8
4 10:53 静穏 0 4850m 20 65 1013.1
4 09:53 南南東 2 4850m 18.9 70 1013.2
4 08:53 不定 2 6450m 18.3 70 1013.5
4 07:53 北東 3 6450m 17.2 75 1013.4
4 06:53 2 6450m 16.7 75 1013.4
4 05:53 静穏 0 10km以上 16.1 81 1012.8
4 04:53 南南東 2 10km以上 16.1 78 1012.4
4 03:53 静穏 0 10km以上 16.1 75 1012.4
4 02:53 東南東 3 10km以上 16.1 72 1011.8
4 01:53 西北西 2 10km以上 17.2 75 1012.1
4 00:53 静穏 0 10km以上 17.8 70 1011.8
3 23:53 北東 2 10km以上 19.4 66 1011.3
3 22:53 西北西 2 10km以上 20 59 1010.8
3 21:53 北東 3 10km以上 20 61 1010.6
3 20:53 4 10km以上 21.1 55 1010.7
3 19:53 6 10km以上 22.2 51 1010.9
3 19:11 北北東 5 10km以上 23.3 46 1011
3 18:53 北北東 6 10km以上 23.9 43 1011
3 18:16 東北東 8 10km以上 26.1 35 1011
3 17:53 北北東 8 4850m 27.2 33 1010.3
3 17:47 北東 8 4850m 28 35 1010
3 16:53 2 1600m 27.8 44 1010.1
3 15:53 南西 3 1600m 27.2 45 1010.4
3 15:26 西南西 3 2400m 26.7 45 1011
3 15:18 西南西 5 3200m 26.7 47 1011
3 14:53 南西 3 4850m 26.7 47 1010.7
3 14:30 南南西 4 4850m 26.7 51 1011
3 13:53 静穏 0 2400m 25.6 54 1011.5
3 12:53 3 2400m 24.4 58 1011.7
3 11:53 東南東 2 3200m 23.3 56 1011.8
3 11:10 3 3200m 22.2 59 1012
3 10:53 不定 2 4850m 22.2 59 1012
3 09:53 南東 2 4850m 21.1 61 1012
3 08:53 北東 2 4850m 20 63 1012
3 07:53 東北東 4 8050m 18.3 68 1012.2
3 06:53 北東 2 6450m 17.8 75 1012.1
3 05:53 静穏 0 8050m 17.2 72 1012
3 04:53 静穏 0 6450m 16.7 78 1011.5
3 03:53 静穏 0 6450m 18.9 65 1011
3 02:53 北北東 3 6450m 18.3 68 1011.1
3 01:53 北東 2 4850m 18.9 65 1010.8
3 00:53 東北東 2 4850m 19.4 66 1010.8
3 00:05 静穏 0 4000m 21.1 66 1011
2 23:53 静穏 0 4850m 21.1 63 1010.6
2 22:53 静穏 0 4850m 23.3 56 1010.5
2 21:53 北北西 2 8050m 25.6 43 1010.2
2 20:53 静穏 0 8050m 28.3 37 1010.3
PAFA 050353Z 24005KT 5SM FU FEW050 SCT100 BKN200 27/13 A2981 RMK AO2 SLP096 T02670128
PAFA 050253Z 20006KT 5SM FU FEW050 SCT100 BKN200 28/12 A2982 RMK AO2 SLP100 T02780122 56009
PAFA 050153Z 20005KT 6SM FU FEW050 SCT100 BKN200 28/11 A2982 RMK AO2 SLP101 T02780111
PAFA 050053Z VRB04KT 5SM FU SCT030 BKN120 BKN180 27/12 A2983 RMK AO2 SLP103 T02720117
PAFA 042353Z 15003KT 4SM FU BKN030 BKN120 BKN180 26/13 A2985 RMK AO2 SLP109 T02610128 10261 20189 58015
PAFA 042253Z 00000KT 3SM FU BKN030 BKN120 BKN180 26/14 A2986 RMK AO2 SLP114 T02610139
PAFA 042153Z 00000KT 2SM FU BKN030 BKN120 BKN180 25/14 A2988 RMK AO2 SLP121 T02500139
PAFA 042053Z 00000KT 3SM FU BKN030 BKN120 BKN180 23/14 A2989 RMK AO2 SLP126 T02330139 58006
PAFA 041953Z 00000KT 4SM FU BKN030 BKN130 BKN180 22/14 A2990 RMK AO2 SLP128 T02220139
PAFA 041853Z 00000KT 3SM FU BKN033 BKN130 BKN180 20/13 A2991 RMK AO2 SLP131 T02000133
PAFA 041753Z 15003KT 3SM FU BKN033 BKN130 BKN180 19/13 A2991 RMK AO2 SLP132 T01890133 10194 20150 58001
PAFA 041653Z VRB03KT 4SM FU BKN030 BKN130 BKN180 18/13 A2992 RMK AO2 SLP135 T01830128
PAFA 041553Z 04005KT 4SM FU BKN030 BKN130 BKN180 17/13 A2992 RMK AO2 SLP134 T01720128
PAFA 041453Z 36004KT 4SM FU BKN030 BKN130 BKN180 17/12 A2992 RMK AO2 SLP134 T01670122 53009
PAFA 041353Z 00000KT 6SM FU SCT030 SCT100 BKN180 16/13 A2990 RMK AO2 SLP128 T01610128
PAFA 041253Z 16004KT 8SM SCT100 BKN180 16/12 A2989 RMK AO2 SLP124 FU ALQDS T01610122
PAFA 041153Z 00000KT 8SM SCT100 BKN200 16/12 A2989 RMK AO2 SLP124 FU ALQDS T01610117 10206 20161 53005
PAFA 041053Z 11005KT 8SM SCT100 BKN200 16/11 A2987 RMK AO2 SLP118 FU ALQDS T01610111
PAFA 040953Z 30003KT 10SM BKN110 BKN200 17/13 A2988 RMK AO2 SLP121 FU ALQDS T01720128
PAFA 040853Z 00000KT 10SM BKN110 BKN200 18/12 A2987 RMK AO2 SLP118 CB DSNT NE SW-NW FU ALQDS T01780122 402890161 53013
PAFA 040753Z 04003KT 8SM BKN110 BKN200 19/13 A2986 RMK AO2 SLP113 CB DSNT NE SW-W FU ALQDS T01940128
PAFA 040653Z 29003KT 8SM SCT130 BKN200 20/12 A2985 RMK AO2 SLP108 CB DSNT NE SW-W FU ALQDS T02000117
PAFA 040553Z 04005KT 9SM SCT130 BKN200 20/12 A2984 RMK AO2 SLP106 CB DSNT NE SW-W FU ALQDS T02000122 10289 20200 56005
PAFA 040453Z 36008KT 10SM SCT130 BKN200 21/12 A2984 RMK AO2 SLP107 CB DSNT S-NW FU ALQDS T02110117
PAFA 040353Z 36011KT 10SM FEW070 SCT120 BKN200 22/12 A2984 RMK AO2 WSHFT 0251 SLP109 LTG DSNT NE W-NW CB DSNT NE W-NW FU ALQDS T02220117
PAFA 040311Z 02009KT 9SM FEW070 SCT120 BKN200 23/11 A2985 RMK AO2 WSHFT 0251 LTG DSNT NE-SE SW-NW CB DSNT NE-SE SW-NW FU ALQDS T02330111
PAFA 040253Z 03011KT 9SM FEW020 FEW100 SCT120 BKN200 24/11 A2985 RMK AO2 WSHFT 0156 SLP110 LTG DSNT N-SE SW-N CB DSNT N-SE SW-N FU ALQDS T02390106 53008
PAFA 040216Z 07016G24KT 7SM BKN022 BKN090 BKN200 26/09 A2984 RMK AO2 WSHFT 0156 FU ALQDS LTG DSNT N-SE NW-N CB DSNT N-SE NW-N T02610094
PAFA 040153Z 03015KT 3SM FU BKN022CB BKN120 BKN200 27/09 A2983 RMK AO2 SFC VIS 6 SLP103 CB NW MOV UNKN LTG DSNT N-SE NW-N CB DSNT N-SE NW-N T02720094
PAFA 040147Z 04016G22KT 3SM FU BKN022 BKN120 BKN200 28/11 A2983 RMK AO2 LTG DSNT N-SE NW CB DSNT N-SE NW
PAFA 040053Z 19004KT 1SM R02L/P6000FT FU BKN018 BKN090 BKN200 28/14 A2982 RMK AO2 SLP101 LTG DSNT N-E SW CB DSNT N-SE NW T02780144
PAFA 032353Z 23005KT 1SM R02L/P6000FT FU SCT015 BKN021 BKN090 BKN200 27/14 A2983 RMK AO2 TWR VIS 1 1/2 SLP104 LTG DSNT SW CB DSNT NW S-SW T02720144 10272 20206 58013
PAFA 032326Z 25006KT 1 1/2SM FU SCT015 BKN021 BKN090 27/14 A2984 RMK AO2 LTG DSNT SW CB DSNT NW S-SW T02670139
PAFA 032318Z 25009KT 2SM FU FEW015 SCT021 SCT090 27/14 A2984 RMK AO2 LTG DSNT SW CB DSNT NW S-SW T02670144
PAFA 032253Z 23005KT 3SM FU FEW025 FEW090 SCT110 27/14 A2984 RMK AO2 SLP107 LTG DSNT SW CB DSNT NW S-SW T02670144
PAFA 032230Z 20007KT 3SM FU FEW017 SCT025 SCT110 27/16 A2985 RMK AO2 CB DSNT N-NE S-SW T02670156
PAFA 032153Z 00000KT 1 1/2SM FU FEW017 SCT025 SCT110 26/16 A2987 RMK AO2 SLP115 T02560156
PAFA 032053Z 09005KT 1 1/2SM FU FEW014 SCT020 BKN110 24/16 A2987 RMK AO2 SLP117 T02440156 58003
PAFA 031953Z 12003KT 2SM FU FEW017 SCT024 SCT060 23/14 A2987 RMK AO2 SLP118 T02330139
PAFA 031910Z 10005KT 2SM FU FEW080 SCT110 SCT180 22/14 A2988 RMK AO2 T02220139
PAFA 031853Z VRB04KT 3SM FU FEW080 SCT110 SCT180 22/14 A2988 RMK AO2 SLP120 T02220139
PAFA 031753Z 14004KT 3SM FU FEW080 SCT110 BKN200 21/13 A2988 RMK AO2 SLP120 T02110133 10211 20161 58001
PAFA 031653Z 05004KT 3SM FU FEW080 SCT110 BKN200 20/13 A2988 RMK AO2 SLP120 T02000128
PAFA 031553Z 06007KT 5SM FU FEW080 SCT110 BKN200 18/12 A2989 RMK AO2 SLP122 T01830122
PAFA 031453Z 04004KT 4SM FU FEW080 SCT110 BKN200 18/13 A2988 RMK AO2 SLP121 T01780133 51010
PAFA 031353Z 00000KT 5SM FU SCT080 SCT110 BKN200 17/12 A2988 RMK AO2 SLP120 T01720122
PAFA 031253Z 00000KT 4SM FU SCT080 SCT110 BKN200 17/13 A2987 RMK AO2 SLP115 T01670128
PAFA 031153Z 00000KT 4SM FU SCT080 SCT120 BKN200 19/12 A2985 RMK AO2 SLP110 60000 T01890122 10256 20172 50002
PAFA 031053Z 02005KT 4SM FU SCT080 BKN110 BKN200 18/12 A2985 RMK AO2 SLP111 T01830122
PAFA 030953Z 05004KT 3SM FU SCT080 BKN120 OVC200 19/12 A2984 RMK AO2 SLP108 P0000 T01890122
PAFA 030853Z 06004KT 3SM FU SCT080 BKN120 OVC200 19/13 A2985 RMK AO2 SLP108 T01940128 402890172 51006
PAFA 030805Z 00000KT 2 1/2SM FU SCT100 BKN200 21/14 A2984 RMK AO2 T02110144
PAFA 030753Z 00000KT 3SM FU SCT100 BKN200 21/14 A2984 RMK AO2 SLP106 T02110139
PAFA 030653Z 00000KT 3SM FU SCT100 BKN200 23/14 A2983 RMK AO2 SLP105 T02330139
PAFA 030553Z 34004KT 5SM FU BKN200 26/12 A2983 RMK AO2 SLP102 T02560122 10289 20250 56003
PAFA 030453Z 00000KT 5SM FU BKN200 28/12 A2983 RMK AO2 SLP103 T02830122